Time;durP1;ratioP1;P1;durP2;ratioP2;P2;SDS_P1;SDS_P2;PMS_P1;PMS_P2;Temp;Humidity;BMP_temperature;BMP_pressure;BME280_temperature;BME280_humidity;BME280_pressure;Samples;Min_cycle;Max_cycle;Signal;HPM_P1;HPM_P2
2023/07/10 00:01:13;;;;;;;13.77;5.17;;;;;;;18.44;65.66;100508.13;125285;1102;101881;-76
2023/07/10 00:03:44;;;;;;;10.60;5.77;;;;;;;18.44;66.00;100498.37;125021;1102;101962;-76
2023/07/10 00:06:17;;;;;;;10.37;5.30;;;;;;;18.45;66.45;100499.25;125057;1102;102296;-76
2023/07/10 00:08:48;;;;;;;11.40;4.90;;;;;;;18.45;65.72;100497.50;125089;1102;102335;-77
2023/07/10 00:11:23;;;;;;;10.63;5.13;;;;;;;18.48;66.36;100504.58;125120;1102;101928;-76
2023/07/10 00:13:55;;;;;;;9.83;4.50;;;;;;;18.47;67.14;100502.83;125176;1101;104185;-77
2023/07/10 00:16:28;;;;;;;13.00;5.07;;;;;;;18.44;66.27;100497.50;125086;1102;102085;-77
2023/07/10 00:18:59;;;;;;;12.83;5.20;;;;;;;18.42;67.17;100500.15;125134;1102;102094;-76
2023/07/10 00:21:30;;;;;;;12.37;5.20;;;;;;;18.42;67.49;100505.46;125230;1102;104210;-77
2023/07/10 00:24:01;;;;;;;11.17;5.70;;;;;;;18.42;66.90;100512.56;125087;1102;104374;-77
2023/07/10 00:26:33;;;;;;;10.33;5.47;;;;;;;18.43;67.11;100514.31;125392;1102;102131;-77
2023/07/10 00:29:15;;;;;;;10.80;5.47;;;;;;;18.42;67.36;100500.15;125183;1102;104168;-76
2023/07/10 00:31:46;;;;;;;11.87;5.30;;;;;;;18.44;67.67;100500.16;125160;1102;102026;-76
2023/07/10 00:34:18;;;;;;;9.67;4.33;;;;;;;18.41;67.73;100503.67;125402;1102;101813;-76
2023/07/10 00:36:53;;;;;;;9.80;4.83;;;;;;;18.39;67.99;100497.48;125418;1102;104079;-76
2023/07/10 00:39:26;;;;;;;8.07;4.13;;;;;;;18.36;67.95;100499.25;125100;1102;101840;-76
2023/07/10 00:42:00;;;;;;;7.30;4.40;;;;;;;18.33;67.88;100498.34;124844;1102;104204;-76
2023/07/10 00:44:38;;;;;;;11.73;4.53;;;;;;;18.33;68.02;100498.34;124916;1102;104305;-77
2023/07/10 00:47:16;;;;;;;9.70;4.70;;;;;;;18.31;68.08;100492.14;124902;1102;104204;-76
2023/07/10 00:49:53;;;;;;;9.50;4.60;;;;;;;18.30;68.15;100481.52;124823;1102;101930;-76
2023/07/10 00:52:29;;;;;;;9.87;4.40;;;;;;;18.29;68.13;100485.03;125180;1102;104278;-77
2023/07/10 00:55:03;;;;;;;8.40;4.47;;;;;;;18.27;68.29;100476.19;125351;1102;104057;-76
2023/07/10 00:57:38;;;;;;;10.33;4.67;;;;;;;18.29;68.15;100477.06;125399;1102;102620;-76
2023/07/10 01:00:18;;;;;;;8.57;4.17;;;;;;;18.29;68.27;100480.63;125466;1102;102220;-76
2023/07/10 01:02:50;;;;;;;8.17;4.43;;;;;;;18.29;68.06;100472.66;125505;1102;101930;-76
2023/07/10 01:05:22;;;;;;;10.60;4.60;;;;;;;18.29;68.01;100471.75;125250;1103;102051;-76
2023/07/10 01:07:58;;;;;;;6.60;4.30;;;;;;;18.30;68.34;100471.77;125219;1105;104293;-77
2023/07/10 01:10:29;;;;;;;9.30;4.20;;;;;;;18.31;68.26;100472.67;125481;1102;101743;-76
2023/07/10 01:13:01;;;;;;;7.43;4.17;;;;;;;18.32;68.70;100467.36;125488;1101;104214;-76
2023/07/10 01:15:32;;;;;;;8.67;4.43;;;;;;;18.33;68.42;100476.21;125663;1103;104240;-77
2023/07/10 01:18:05;;;;;;;10.73;4.23;;;;;;;18.31;68.62;100473.55;125683;1102;101903;-77
2023/07/10 01:20:40;;;;;;;10.87;4.20;;;;;;;18.29;68.68;100472.66;125809;1102;101935;-76
2023/07/10 01:23:12;;;;;;;8.20;4.23;;;;;;;18.30;68.81;100473.54;125927;1102;104249;-77
2023/07/10 01:25:49;;;;;;;10.17;4.33;;;;;;;18.29;68.91;100477.98;125926;1102;101765;-76
2023/07/10 01:28:21;;;;;;;7.97;4.30;;;;;;;18.26;68.66;100477.05;125548;1102;101936;-75
2023/07/10 01:30:56;;;;;;;9.43;4.50;;;;;;;18.24;68.80;100470.86;125753;1102;104099;-76
2023/07/10 01:33:32;;;;;;;8.67;4.63;;;;;;;18.20;69.15;100463.75;125883;1102;102050;-76
2023/07/10 01:36:05;;;;;;;8.57;4.20;;;;;;;18.16;68.88;100470.83;125985;1102;101845;-78
2023/07/10 01:38:48;;;;;;;10.82;4.58;;;;;;;18.15;68.93;100474.36;125834;1102;101749;-76
2023/07/10 01:41:31;;;;;;;9.20;4.50;;;;;;;18.11;69.21;100477.90;125786;1102;101926;-76
2023/07/10 01:44:02;;;;;;;12.27;4.87;;;;;;;18.06;69.23;100483.19;126035;1102;104393;-78
2023/07/10 01:46:33;;;;;;;10.17;4.80;;;;;;;18.01;69.50;100487.56;125698;1102;104185;-76
2023/07/10 01:49:05;;;;;;;9.60;4.47;;;;;;;17.97;69.44;100475.17;125630;1102;102041;-78
2023/07/10 01:51:37;;;;;;;10.17;4.57;;;;;;;17.94;69.45;100478.69;125917;1102;102070;-77
2023/07/10 01:54:11;;;;;;;11.10;4.67;;;;;;;17.93;69.89;100482.21;125452;1102;103106;-76
2023/07/10 01:56:44;;;;;;;8.67;4.40;;;;;;;17.90;69.69;100482.23;124900;1102;104361;-78
2023/07/10 01:59:15;;;;;;;8.83;4.53;;;;;;;17.87;69.70;100474.22;124946;1102;102096;-77
2023/07/10 02:01:47;;;;;;;8.60;4.50;;;;;;;17.83;69.71;100477.72;124681;1102;104285;-77
2023/07/10 02:04:18;;;;;;;9.90;4.60;;;;;;;17.81;69.71;100481.23;124725;1102;102115;-76
2023/07/10 02:06:50;;;;;;;7.73;4.80;;;;;;;17.78;69.97;100482.13;124951;1102;101893;-77
2023/07/10 02:09:22;;;;;;;11.90;4.20;;;;;;;17.74;70.09;100489.16;124970;1102;104166;-77
2023/07/10 02:11:54;;;;;;;12.03;4.80;;;;;;;17.71;70.28;100490.91;124966;1102;102786;-77
2023/07/10 02:14:25;;;;;;;9.50;4.80;;;;;;;17.69;70.43;100490.03;125109;1102;101899;-77
2023/07/10 02:16:57;;;;;;;10.73;5.00;;;;;;;17.68;70.45;100493.55;125262;1102;101798;-76
2023/07/10 02:19:28;;;;;;;7.83;4.30;;;;;;;17.66;70.65;100492.66;125240;1101;102972;-77
2023/07/10 02:22:00;;;;;;;12.40;5.07;;;;;;;17.64;70.68;100486.44;125323;1102;104181;-77
2023/07/10 02:24:32;;;;;;;8.43;4.57;;;;;;;17.59;70.76;100489.97;125056;1102;104204;-77
2023/07/10 02:27:04;;;;;;;10.03;4.40;;;;;;;17.60;70.87;100498.80;125080;1102;101804;-76
2023/07/10 02:29:36;;;;;;;7.73;4.37;;;;;;;17.57;70.80;100501.44;125152;1102;104217;-76
2023/07/10 02:32:09;;;;;;;9.50;4.70;;;;;;;17.55;70.73;100498.77;125231;1102;101974;-76
2023/07/10 02:34:40;;;;;;;11.47;4.70;;;;;;;17.54;71.24;100502.29;125165;1102;101951;-77
2023/07/10 02:37:13;;;;;;;11.13;4.63;;;;;;;17.53;71.18;100505.84;124962;1102;102252;-77
2023/07/10 02:39:45;;;;;;;10.40;4.40;;;;;;;17.53;71.16;100500.53;125144;1102;104291;-77
2023/07/10 02:42:16;;;;;;;9.77;4.60;;;;;;;17.53;71.46;100505.84;125567;1102;104230;-77
2023/07/10 02:44:47;;;;;;;11.33;4.90;;;;;;;17.55;71.32;100516.47;125139;1102;104290;-77
2023/07/10 02:47:18;;;;;;;7.73;4.60;;;;;;;17.55;71.25;100506.73;125437;1102;102000;-77
2023/07/10 02:49:49;;;;;;;11.60;4.70;;;;;;;17.57;71.60;100506.73;125308;1102;102193;-77
2023/07/10 02:52:21;;;;;;;9.37;4.30;;;;;;;17.59;71.98;100508.54;125294;1102;104274;-77
2023/07/10 02:54:52;;;;;;;9.27;4.87;;;;;;;17.64;71.69;100515.63;125089;1102;102306;-76
2023/07/10 02:57:23;;;;;;;9.23;4.60;;;;;;;17.67;71.97;100516.55;125192;1103;102004;-76
2023/07/10 02:59:54;;;;;;;9.50;4.30;;;;;;;17.72;72.11;100521.89;125505;1102;102653;-77
2023/07/10 03:02:26;;;;;;;8.47;4.20;;;;;;;17.74;71.77;100514.82;125547;1102;104203;-76
2023/07/10 03:04:57;;;;;;;11.47;4.90;;;;;;;17.76;72.16;100513.96;125655;1102;102045;-76
2023/07/10 03:07:28;;;;;;;10.20;4.90;;;;;;;17.76;72.25;100519.27;125726;1102;102025;-77
2023/07/10 03:09:59;;;;;;;10.47;4.90;;;;;;;17.77;72.22;100518.37;125566;1102;103023;-76
2023/07/10 03:12:31;;;;;;;9.70;4.37;;;;;;;17.78;72.56;100521.94;125208;1102;102169;-76
2023/07/10 03:15:02;;;;;;;10.77;4.87;;;;;;;17.80;72.37;100514.86;125364;1102;102056;-76
2023/07/10 03:17:37;;;;;;;7.63;4.50;;;;;;;17.80;72.18;100514.86;125285;1102;104185;-77
2023/07/10 03:20:10;;;;;;;12.83;4.80;;;;;;;17.81;72.04;100511.34;125609;1102;105079;-77
2023/07/10 03:22:41;;;;;;;7.78;4.45;;;;;;;17.83;72.11;100514.87;125722;1102;102944;-76
2023/07/10 03:25:12;;;;;;;7.60;4.20;;;;;;;17.85;72.25;100514.89;125622;1102;104347;-76
2023/07/10 03:27:43;;;;;;;10.17;4.90;;;;;;;17.89;72.32;100506.98;125651;1102;102189;-76
2023/07/10 03:30:16;;;;;;;10.80;5.10;;;;;;;17.92;72.68;100504.35;125993;1102;104316;-77
2023/07/10 03:32:47;;;;;;;10.93;4.90;;;;;;;17.92;72.41;100509.66;125856;1102;101984;-76
2023/07/10 03:35:18;;;;;;;10.60;4.80;;;;;;;17.94;72.33;100509.67;125919;1102;102087;-76
2023/07/10 03:37:49;;;;;;;9.47;4.33;;;;;;;17.96;72.04;100514.09;126014;1102;102090;-76
2023/07/10 03:40:21;;;;;;;8.57;4.77;;;;;;;17.99;72.55;100507.92;125726;1102;102028;-76
2023/07/10 03:42:52;;;;;;;9.50;4.57;;;;;;;18.02;72.51;100513.24;125823;1102;101841;-76
2023/07/10 03:45:23;;;;;;;13.00;4.83;;;;;;;18.04;72.70;100507.94;125391;1102;104252;-77
2023/07/10 03:47:54;;;;;;;10.63;4.90;;;;;;;18.05;72.76;100512.38;125450;1102;102516;-77
2023/07/10 03:50:26;;;;;;;9.07;4.97;;;;;;;18.05;72.77;100513.27;125389;1102;104264;-77
2023/07/10 03:52:57;;;;;;;10.93;4.60;;;;;;;18.07;72.81;100516.80;125355;1101;102198;-78
2023/07/10 03:55:28;;;;;;;9.13;4.60;;;;;;;18.08;72.80;100525.67;125392;1102;101791;-77
2023/07/10 03:57:59;;;;;;;11.33;4.90;;;;;;;18.09;72.81;100517.72;125148;1102;102041;-76
2023/07/10 04:00:30;;;;;;;9.03;4.30;;;;;;;18.13;72.85;100515.95;125218;1102;102205;-76
2023/07/10 04:03:02;;;;;;;9.33;4.87;;;;;;;18.19;73.08;100515.11;125334;1102;104175;-78
2023/07/10 04:05:35;;;;;;;10.07;4.87;;;;;;;18.19;72.83;100520.42;124940;1102;101994;-77
2023/07/10 04:08:06;;;;;;;11.40;4.77;;;;;;;18.20;72.73;100514.21;124661;1102;104233;-78
2023/07/10 04:10:38;;;;;;;13.27;4.80;;;;;;;18.23;72.74;100514.22;124573;1102;104365;-78
2023/07/10 04:13:09;;;;;;;8.37;4.60;;;;;;;18.26;73.01;100515.15;124641;1102;104179;-77
2023/07/10 04:15:40;;;;;;;9.85;4.75;;;;;;;18.28;72.90;100512.50;124661;1102;104227;-77
2023/07/10 04:18:11;;;;;;;11.37;4.40;;;;;;;18.33;73.03;100524.02;124771;1102;104182;-78
2023/07/10 04:20:43;;;;;;;10.50;4.90;;;;;;;18.36;72.77;100517.84;124560;1103;102329;-77
2023/07/10 04:23:14;;;;;;;10.43;4.40;;;;;;;18.38;72.88;100516.95;124744;1102;104200;-78
2023/07/10 04:25:46;;;;;;;11.83;4.70;;;;;;;18.40;72.69;100525.83;124594;1102;104200;-78
2023/07/10 04:28:17;;;;;;;11.33;4.83;;;;;;;18.44;72.75;100530.26;124496;1102;104227;-77
2023/07/10 04:30:49;;;;;;;14.87;4.77;;;;;;;18.47;72.72;100526.73;124721;1102;104201;-79
2023/07/10 04:33:21;;;;;;;7.33;4.30;;;;;;;18.49;72.54;100530.28;124677;1102;104231;-77
2023/07/10 04:35:58;;;;;;;9.57;4.53;;;;;;;18.51;72.48;100525.84;124597;1102;102034;-78
2023/07/10 04:38:30;;;;;;;12.40;4.73;;;;;;;18.54;72.64;100523.20;124687;1102;102741;-77
2023/07/10 04:41:03;;;;;;;8.90;4.40;;;;;;;18.55;72.35;100530.30;124420;1102;104185;-76
2023/07/10 04:43:36;;;;;;;13.68;5.40;;;;;;;18.57;72.63;100531.18;124546;1102;104226;-78
2023/07/10 04:46:15;;;;;;;14.93;5.10;;;;;;;18.60;72.69;100531.19;124692;1102;104271;-78
2023/07/10 04:48:47;;;;;;;11.27;4.57;;;;;;;18.61;72.50;100532.98;124346;1102;104192;-76
2023/07/10 04:51:19;;;;;;;7.90;4.50;;;;;;;18.68;72.71;100533.88;125093;1102;103421;-77
2023/07/10 04:53:51;;;;;;;11.70;5.37;;;;;;;18.75;73.39;100533.02;124787;1102;104223;-79
2023/07/10 04:56:31;;;;;;;10.40;5.03;;;;;;;18.85;73.28;100528.64;124542;1102;104173;-77
2023/07/10 04:59:03;;;;;;;13.43;5.03;;;;;;;19.00;73.09;100536.64;124518;1102;104245;-77
2023/07/10 05:01:35;;;;;;;13.30;5.27;;;;;;;19.15;72.78;100522.50;124627;1102;101814;-76
2023/07/10 05:04:10;;;;;;;11.00;4.80;;;;;;;19.31;72.97;100523.38;124669;1102;103443;-78
2023/07/10 05:06:43;;;;;;;11.10;5.20;;;;;;;19.43;72.79;100532.24;124915;1102;102349;-79
2023/07/10 05:09:15;;;;;;;8.03;4.87;;;;;;;19.50;72.97;100526.05;125065;1102;104175;-77
2023/07/10 05:11:46;;;;;;;11.83;4.87;;;;;;;19.53;72.86;100520.72;124694;1102;104193;-77
2023/07/10 05:14:18;;;;;;;11.47;5.37;;;;;;;19.58;73.00;100519.80;124834;1101;104232;-79
2023/07/10 05:16:51;;;;;;;12.03;5.40;;;;;;;19.66;72.41;100524.25;124582;1103;104340;-77
2023/07/10 05:19:23;;;;;;;15.55;5.35;;;;;;;19.68;72.69;100510.06;124626;1102;104326;-79
2023/07/10 05:21:55;;;;;;;12.17;5.23;;;;;;;19.82;72.66;100523.38;124802;1102;103744;-79
2023/07/10 05:24:28;;;;;;;11.83;5.30;;;;;;;19.89;72.85;100525.13;124878;1102;104202;-79
2023/07/10 05:27:00;;;;;;;8.03;4.60;;;;;;;19.96;71.85;100526.02;124716;1102;102833;-77
2023/07/10 05:29:35;;;;;;;10.60;4.90;;;;;;;20.02;72.53;100533.95;124437;1102;101962;-79
2023/07/10 05:32:09;;;;;;;11.80;4.57;;;;;;;20.09;72.75;100526.86;124537;1102;104189;-80
2023/07/10 05:34:40;;;;;;;14.10;5.57;;;;;;;20.18;72.56;100533.92;124696;1101;104229;-78
2023/07/10 05:37:13;;;;;;;8.60;4.90;;;;;;;20.25;72.23;100533.02;125292;1102;102067;-80
2023/07/10 05:39:47;;;;;;;8.53;4.47;;;;;;;20.37;72.31;100532.09;126287;1101;101836;-79
2023/07/10 05:42:20;;;;;;;11.50;4.67;;;;;;;20.45;71.43;100535.61;124801;1102;101993;-79
2023/07/10 05:45:00;;;;;;;10.77;4.77;;;;;;;20.56;71.31;100524.90;125826;1102;102002;-80
2023/07/10 05:47:33;;;;;;;8.87;4.70;;;;;;;20.66;71.34;100534.63;124523;1102;104233;-80
2023/07/10 05:50:06;;;;;;;9.47;4.90;;;;;;;20.75;71.27;100529.25;125041;1102;104201;-74
2023/07/10 05:52:39;;;;;;;12.80;4.90;;;;;;;20.85;70.90;100526.53;124394;1102;102487;-75
2023/07/10 05:55:10;;;;;;;10.23;4.60;;;;;;;20.91;70.76;100530.07;124341;1101;104191;-78
2023/07/10 05:57:42;;;;;;;9.33;4.93;;;;;;;21.01;70.52;100528.22;124488;1102;104226;-80
2023/07/10 06:00:16;;;;;;;12.40;4.77;;;;;;;21.09;69.97;100531.71;124539;1102;104284;-75
2023/07/10 06:02:50;;;;;;;11.33;4.90;;;;;;;21.19;70.31;100530.77;124491;1102;102006;-75
2023/07/10 06:05:30;;;;;;;7.83;4.63;;;;;;;21.30;69.73;100537.77;126251;1102;104168;-79
2023/07/10 06:08:27;;;;;;;7.07;4.20;;;;;;;21.39;69.75;100532.36;125883;1102;102131;-79
2023/07/10 06:11:01;;;;;;;7.80;4.50;;;;;;;21.51;69.77;100526.95;125490;1102;102638;-77
2023/07/10 06:13:37;;;;;;;10.33;4.73;;;;;;;21.62;69.42;100529.53;124431;1102;104271;-78
2023/07/10 06:16:46;;;;;;;;;;;;;;;;;;;;;
2023/07/10 06:19:30;;;;;;;9.90;4.70;;;;;;;21.84;68.33;100529.33;125294;1102;104406;-77
2023/07/10 06:22:12;;;;;;;8.35;4.55;;;;;;;21.95;68.59;100529.21;125402;1102;102342;-80
2023/07/10 06:24:49;;;;;;;6.83;4.37;;;;;;;22.01;68.19;100521.13;125416;1102;107917;-79
2023/07/10 06:27:21;;;;;;;;;;;;;;;22.09;68.23;100521.92;125737;1101;101882;-81
2023/07/10 06:30:00;;;;;;;10.17;4.90;;;;;;;22.18;67.40;100528.96;125911;1102;102184;-81
2023/07/10 06:33:06;;;;;;;11.70;4.63;;;;;;;22.28;67.38;100519.03;126144;1102;101700;-82
2023/07/10 06:36:04;;;;;;;9.17;4.53;;;;;;;22.41;67.21;100523.38;126012;1101;118176;-77
2023/07/10 06:38:42;;;;;;;17.40;4.47;;;;;;;22.51;66.60;100522.33;125261;1102;104351;-78
2023/07/10 06:41:53;;;;;;;10.27;4.77;;;;;;;22.61;66.07;100521.31;125736;1101;102403;-79
2023/07/10 06:44:31;;;;;;;9.85;4.30;;;;;;;22.74;66.00;100519.34;125740;1102;101829;-80
2023/07/10 06:47:13;;;;;;;8.83;4.10;;;;;;;22.86;65.14;100523.64;126888;1101;101680;-77
2023/07/10 06:49:52;;;;;;;8.75;3.92;;;;;;;23.01;64.85;100525.19;125440;1102;102455;-80
2023/07/10 06:52:56;;;;;;;9.43;4.13;;;;;;;23.14;64.34;100520.59;125387;1105;101919;-80
2023/07/10 06:56:04;;;;;;;8.07;3.90;;;;;;;23.30;63.47;100519.41;125894;1102;101929;-79
2023/07/10 06:58:51;;;;;;;;;;;;;;;23.43;62.07;100509.37;125658;1102;104221;-78
2023/07/10 07:01:39;;;;;;;9.40;3.57;;;;;;;23.55;62.24;100508.28;125292;1102;101859;-78
2023/07/10 07:04:15;;;;;;;6.93;3.80;;;;;;;23.69;61.80;100513.39;125977;1101;102218;-78
2023/07/10 07:06:47;;;;;;;7.03;3.37;;;;;;;23.84;61.95;100513.14;125379;1102;104192;-81
2023/07/10 07:09:22;;;;;;;7.33;3.77;;;;;;;23.95;60.48;100510.27;125767;1101;101922;-77
2023/07/10 07:11:54;;;;;;;;;;;;;;;24.10;61.00;100517.09;125537;1101;101844;-81
2023/07/10 07:14:27;;;;;;;6.23;3.77;;;;;;;24.25;59.17;100512.33;125576;1102;104242;-80
2023/07/10 07:17:12;;;;;;;7.97;3.83;;;;;;;24.39;59.94;100513.83;124975;1105;102536;-79
2023/07/10 07:19:42;;;;;;;;;;;;;;;24.58;58.69;100513.46;125827;1102;104251;-79
2023/07/10 07:22:17;;;;;;;6.60;3.77;;;;;;;24.69;57.89;100506.05;125670;1102;104230;-78
2023/07/10 07:24:49;;;;;;;4.70;3.30;;;;;;;24.84;55.99;100498.55;125422;1102;104194;-79
2023/07/10 07:27:23;;;;;;;5.87;3.40;;;;;;;25.04;56.93;100508.83;126449;1101;101843;-78
2023/07/10 07:29:56;;;;;;;7.13;3.40;;;;;;;25.23;55.88;100503.91;124425;1105;104399;-81
2023/07/10 07:32:27;;;;;;;8.23;3.00;;;;;;;25.45;54.17;100497.09;124620;1102;102274;-76
2023/07/10 07:35:01;;;;;;;6.47;2.87;;;;;;;25.70;52.62;100504.50;124534;1102;102038;-79
2023/07/10 07:37:42;;;;;;;6.97;3.30;;;;;;;25.99;52.74;100497.46;124837;1102;101919;-76
2023/07/10 07:40:37;;;;;;;6.73;2.93;;;;;;;26.27;50.72;100513.71;125485;1102;102104;-79
2023/07/10 07:43:30;;;;;;;4.40;3.07;;;;;;;26.59;50.56;100498.39;126674;1102;102099;-80
2023/07/10 07:46:02;;;;;;;5.13;2.80;;;;;;;26.83;49.09;100499.48;125925;1102;102022;-79
2023/07/10 07:48:44;;;;;;;5.57;2.80;;;;;;;27.11;49.84;100501.26;125452;1102;101884;-78
2023/07/10 07:51:16;;;;;;;4.93;2.97;;;;;;;27.45;49.59;100486.69;125271;1102;104268;-75
2023/07/10 07:54:12;;;;;;;;;;;;;;;;;;;;;
2023/07/10 07:56:58;;;;;;;5.00;2.80;;;;;;;27.56;47.14;100497.09;124674;1102;102092;-80
2023/07/10 07:59:43;;;;;;;6.30;2.97;;;;;;;27.61;46.76;100490.63;125589;1102;102064;-82
2023/07/10 08:02:25;;;;;;;4.50;2.73;;;;;;;27.74;46.06;100495.58;125494;1102;101984;-77
2023/07/10 08:05:08;;;;;;;6.40;3.10;;;;;;;27.69;46.61;100493.05;125872;1102;102266;-78
2023/07/10 08:07:44;;;;;;;5.20;2.97;;;;;;;27.48;46.02;100499.19;126145;1101;101832;-79
2023/07/10 08:13:43;;;;;;;7.80;3.20;;;;;;;27.13;44.97;100494.03;125477;1102;104216;-81
2023/07/10 08:16:17;;;;;;;6.20;2.90;;;;;;;27.29;45.41;100489.00;125591;1103;102292;-79
2023/07/10 08:21:57;;;;;;;7.90;3.20;;;;;;;27.42;44.08;100478.71;126279;1101;101778;-79
2023/07/10 08:24:32;;;;;;;6.27;3.03;;;;;;;27.35;44.02;100479.88;127163;1101;102202;-78
2023/07/10 08:27:04;;;;;;;5.63;2.97;;;;;;;27.42;44.22;100474.20;125946;1101;101861;-77
2023/07/10 08:29:36;;;;;;;6.43;3.37;;;;;;;27.50;43.51;100468.54;125365;1105;102361;-77
2023/07/10 08:34:54;;;;;;;7.83;3.23;;;;;;;27.50;43.10;100473.92;124677;1102;104191;-78
2023/07/10 08:37:27;;;;;;;8.40;3.30;;;;;;;27.59;42.55;100467.34;126770;1101;102182;-77
2023/07/10 08:40:21;;;;;;;5.00;2.80;;;;;;;27.71;41.14;100463.34;126321;1102;101419;-77
2023/07/10 08:43:05;;;;;;;4.93;3.50;;;;;;;27.86;41.90;100469.98;125959;1101;104077;-80
2023/07/10 08:46:02;;;;;;;6.77;3.20;;;;;;;28.03;41.23;100464.86;127044;1101;101880;-82
2023/07/10 08:48:45;;;;;;;7.70;3.57;;;;;;;28.11;41.38;100467.27;124914;1102;104169;-81
2023/07/10 08:51:52;;;;;;;7.47;3.37;;;;;;;28.09;40.58;100455.67;127224;1101;102073;-78
2023/07/10 08:54:32;;;;;;;4.20;3.13;;;;;;;28.21;40.55;100452.52;126969;1101;104168;-80
2023/07/10 08:57:29;;;;;;;4.93;3.27;;;;;;;28.29;39.45;100446.83;126330;1101;101971;-77
2023/07/10 09:00:26;;;;;;;4.53;3.00;;;;;;;28.44;39.49;100443.53;124765;1102;109061;-78
2023/07/10 09:03:20;;;;;;;3.73;3.00;;;;;;;28.44;38.18;100450.75;125952;1102;101939;-79
2023/07/10 09:06:04;;;;;;;5.93;3.00;;;;;;;28.41;37.57;100464.36;126720;1101;101919;-77
2023/07/10 09:08:39;;;;;;;5.30;2.83;;;;;;;28.40;36.91;100454.50;124972;1102;104233;-74
2023/07/10 09:11:16;;;;;;;5.50;2.97;;;;;;;28.47;37.19;100454.20;124666;1102;104380;-76
2023/07/10 09:13:54;;;;;;;4.80;2.83;;;;;;;28.64;36.48;100452.66;125056;1102;103566;-75
2023/07/10 09:16:39;;;;;;;4.80;3.13;;;;;;;28.66;36.43;100456.20;125658;1101;104700;-75
2023/07/10 09:19:18;;;;;;;5.13;2.80;;;;;;;28.67;36.40;100450.74;125053;1102;104198;-75
2023/07/10 09:21:50;;;;;;;5.27;2.93;;;;;;;28.74;35.80;100448.66;124199;1102;102076;-75
2023/07/10 09:24:27;;;;;;;4.10;2.80;;;;;;;28.67;35.38;100453.44;124447;1101;104214;-76
2023/07/10 09:27:01;;;;;;;5.10;2.90;;;;;;;28.64;35.61;100461.66;124304;1102;101842;-75
2023/07/10 09:29:38;;;;;;;4.27;2.83;;;;;;;28.62;34.81;100466.22;124299;1102;102049;-75
2023/07/10 09:32:15;;;;;;;7.53;2.93;;;;;;;28.54;34.56;100457.53;125992;1101;104303;-72
2023/07/10 09:34:59;;;;;;;7.83;3.10;;;;;;;28.56;34.55;100461.03;126788;1102;101827;-77
2023/07/10 09:37:37;;;;;;;5.83;3.23;;;;;;;28.60;34.90;100459.15;125028;1106;104160;-79
2023/07/10 09:40:38;;;;;;;3.13;2.80;;;;;;;28.68;35.14;100457.87;124307;1102;104345;-77
2023/07/10 09:43:16;;;;;;;6.95;2.60;;;;;;;28.68;34.71;100467.81;125546;1101;102058;-79
2023/07/10 09:48:47;;;;;;;4.07;2.70;;;;;;;28.81;34.38;100455.58;124522;1105;104342;-77
2023/07/10 09:51:19;;;;;;;6.67;3.07;;;;;;;28.81;34.18;100443.87;124332;1102;101913;-78
2023/07/10 09:54:06;;;;;;;7.03;3.20;;;;;;;28.96;34.95;100439.68;124805;1102;104313;-79
2023/07/10 09:56:39;;;;;;;4.03;3.00;;;;;;;28.97;34.39;100455.82;124484;1102;101936;-77
2023/07/10 09:59:25;;;;;;;4.40;2.90;;;;;;;28.67;33.17;100444.44;125906;1101;102076;-78
2023/07/10 10:02:03;;;;;;;5.30;3.17;;;;;;;28.48;34.24;100439.74;125846;1101;104370;-80
2023/07/10 10:04:38;;;;;;;9.27;3.47;;;;;;;28.29;34.01;100444.13;127131;1101;101797;-78
2023/07/10 10:07:20;;;;;;;4.72;2.85;;;;;;;28.19;34.56;100445.41;124673;1102;104201;-79
2023/07/10 10:10:23;;;;;;;6.27;3.30;;;;;;;28.17;34.76;100441.90;125867;1102;101801;-82
2023/07/10 10:13:21;;;;;;;5.37;2.90;;;;;;;28.27;35.42;100429.83;127036;1101;104488;-79
2023/07/10 10:16:03;;;;;;;3.23;2.70;;;;;;;28.45;34.76;100441.70;125034;1102;101910;-81
2023/07/10 10:18:42;;;;;;;5.67;2.90;;;;;;;28.42;34.55;100431.02;125257;1102;102017;-82
2023/07/10 10:21:18;;;;;;;5.60;2.80;;;;;;;28.37;34.81;100427.64;125160;1102;101832;-81
2023/07/10 10:23:52;;;;;;;5.47;2.80;;;;;;;28.36;34.73;100434.86;124707;1101;102032;-79
2023/07/10 10:26:42;;;;;;;;;;;;;;;28.29;34.39;100439.59;124341;1102;104173;-81
2023/07/10 10:29:54;;;;;;;11.57;2.80;;;;;;;28.28;33.76;100424.38;124547;1102;104316;-82
2023/07/10 10:32:45;;;;;;;4.80;2.70;;;;;;;27.97;34.01;100428.24;124738;1102;104117;-77
2023/07/10 10:35:34;;;;;;;9.50;2.93;;;;;;;27.83;33.81;100446.73;125609;1102;101933;-77
2023/07/10 10:38:21;;;;;;;5.30;2.87;;;;;;;27.96;34.04;100437.26;125176;1102;104249;-79
2023/07/10 10:41:19;;;;;;;6.57;2.70;;;;;;;28.07;34.16;100438.68;124645;1102;102547;-79
2023/07/10 10:46:58;;;;;;;6.10;2.83;;;;;;;28.21;34.10;100430.93;124445;1102;104225;-77
2023/07/10 10:49:52;;;;;;;4.15;2.80;;;;;;;28.23;33.97;100418.25;124430;1102;104179;-78
2023/07/10 10:52:38;;;;;;;3.20;2.73;;;;;;;28.27;34.07;100421.73;124418;1102;104172;-79
2023/07/10 10:55:34;;;;;;;6.87;2.80;;;;;;;28.31;34.02;100420.66;124385;1102;104255;-79
2023/07/10 10:58:18;;;;;;;3.63;2.77;;;;;;;28.30;34.27;100422.48;124098;1102;102018;-77
2023/07/10 11:01:26;;;;;;;7.07;3.07;;;;;;;28.28;34.17;100418.97;124002;1102;104236;-77
2023/07/10 11:04:04;;;;;;;3.77;2.60;;;;;;;28.23;34.25;100426.34;126201;1101;109521;-76
2023/07/10 11:06:47;;;;;;;11.80;2.73;;;;;;;28.16;34.10;100422.14;126226;1102;101828;-77
2023/07/10 11:09:23;;;;;;;4.60;2.40;;;;;;;28.15;33.69;100420.37;125802;1102;101972;-76
2023/07/10 11:11:58;;;;;;;4.40;2.40;;;;;;;28.21;33.47;100419.27;125627;1101;102006;-75
2023/07/10 11:14:38;;;;;;;4.97;2.60;;;;;;;28.28;32.89;100413.58;125517;1102;102179;-77
2023/07/10 11:20:01;;;;;;;4.47;2.50;;;;;;;28.43;31.96;100406.67;125553;1101;102599;-78
2023/07/10 11:22:50;;;;;;;3.37;2.57;;;;;;;28.48;32.33;100409.19;124754;1102;104204;-79
2023/07/10 11:25:43;;;;;;;3.73;2.50;;;;;;;28.46;32.48;100408.38;125212;1102;104235;-77
2023/07/10 11:28:26;;;;;;;4.43;2.30;;;;;;;28.50;32.08;100401.90;124356;1102;104181;-76
2023/07/10 11:31:38;;;;;;;4.43;2.30;;;;;;;28.52;32.26;100397.34;125697;1102;102272;-77
2023/07/10 11:34:41;;;;;;;4.67;2.53;;;;;;;28.61;32.20;100402.40;124531;1106;104348;-78
2023/07/10 11:37:44;;;;;;;4.90;2.50;;;;;;;28.50;31.73;100410.00;125788;1102;101990;-79
2023/07/10 11:40:46;;;;;;;5.77;2.57;;;;;;;28.39;32.06;100396.06;124823;1102;104208;-84
2023/07/10 11:44:12;;;;;;;4.17;2.40;;;;;;;28.30;32.19;100383.84;126588;1101;101856;-78
2023/07/10 11:47:18;;;;;;;3.83;2.53;;;;;;;28.40;31.96;100384.34;126151;1101;104169;-81
2023/07/10 11:50:13;;;;;;;4.00;2.30;;;;;;;28.59;32.20;100377.27;124546;1102;104157;-78
2023/07/10 11:53:12;;;;;;;4.83;2.57;;;;;;;28.69;31.00;100375.09;124450;1102;101965;-79
2023/07/10 11:56:05;;;;;;;6.47;2.80;;;;;;;28.66;31.24;100386.02;126220;1101;104261;-78
2023/07/10 11:58:47;;;;;;;3.93;2.60;;;;;;;28.66;31.27;100367.98;126093;1102;102291;-80
2023/07/10 12:01:22;;;;;;;3.83;2.37;;;;;;;28.74;30.62;100380.30;126461;1102;101642;-76
2023/07/10 12:19:12;;;;;;;5.57;2.60;;;;;;;28.63;31.40;100372.64;127599;1089;101949;-77
2023/07/10 12:21:44;;;;;;;4.20;2.60;;;;;;;28.49;31.61;100371.34;127320;1089;104158;-75
2023/07/10 12:24:18;;;;;;;7.12;2.72;;;;;;;28.42;31.53;100379.75;127369;1089;104194;-76
2023/07/10 12:26:53;;;;;;;4.93;2.67;;;;;;;28.48;31.62;100380.38;128312;1088;101793;-78
2023/07/10 12:29:33;;;;;;;3.60;2.87;;;;;;;28.39;31.92;100379.87;128070;1089;101926;-76
2023/07/10 12:32:12;;;;;;;4.00;2.50;;;;;;;28.31;31.84;100378.38;127681;1093;102102;-79